createdAt,value
2023-05-17T00:00:26.612Z,100424.45
2023-05-17T00:03:20.134Z,100421.71
2023-05-17T00:05:53.885Z,100421.46
2023-05-17T00:08:36.208Z,100420.58
2023-05-17T00:11:34.520Z,100415.83
2023-05-17T00:14:05.071Z,100416.34
2023-05-17T00:16:42.537Z,100416.29
2023-05-17T00:19:13.225Z,100410.43
2023-05-17T00:21:44.031Z,100405.25
2023-05-17T00:24:14.671Z,100404.66
2023-05-17T00:26:45.029Z,100406.80
2023-05-17T00:29:20.587Z,100411.36
2023-05-17T00:31:55.073Z,100408.42
2023-05-17T00:34:26.777Z,100407.71
2023-05-17T00:36:59.864Z,100415.57
2023-05-17T00:39:30.255Z,100419.96
2023-05-17T00:42:02.765Z,100421.67
2023-05-17T00:44:35.330Z,100424.77
2023-05-17T00:47:16.512Z,100422.51
2023-05-17T00:49:49.260Z,100421.64
2023-05-17T00:52:19.986Z,100419.05
2023-05-17T00:54:54.941Z,100417.89
2023-05-17T00:57:29.607Z,100420.69
2023-05-17T01:00:05.320Z,100422.13
2023-05-17T01:02:38.017Z,100422.58
2023-05-17T01:05:20.043Z,100418.76
2023-05-17T01:07:50.536Z,100410.73
2023-05-17T01:10:23.649Z,100410.71
2023-05-17T01:13:18.404Z,100414.84
2023-05-17T01:16:03.161Z,100426.77
2023-05-17T01:19:01.807Z,100432.61
2023-05-17T01:21:48.143Z,100431.48
2023-05-17T01:24:39.463Z,100429.20
2023-05-17T01:27:15.625Z,100432.98
2023-05-17T01:29:55.342Z,100439.53
2023-05-17T01:32:28.826Z,100437.30
2023-05-17T01:34:58.993Z,100432.68
2023-05-17T01:37:33.615Z,100429.53
2023-05-17T01:40:08.000Z,100425.36
2023-05-17T01:43:00.912Z,100427.56
2023-05-17T01:46:21.622Z,100437.54
2023-05-17T01:49:31.185Z,100442.08
2023-05-17T01:52:19.590Z,100438.44
2023-05-17T01:55:34.061Z,100432.31
2023-05-17T01:58:16.568Z,100441.73
2023-05-17T02:00:53.838Z,100444.23
2023-05-17T02:03:29.994Z,100445.89
2023-05-17T02:06:02.929Z,100451.68
2023-05-17T02:08:45.256Z,100453.39
2023-05-17T02:11:16.381Z,100455.73
2023-05-17T02:13:47.951Z,100456.14
2023-05-17T02:16:18.496Z,100457.02
2023-05-17T02:18:48.377Z,100459.68
2023-05-17T02:21:19.014Z,100461.15
2023-05-17T02:23:49.514Z,100460.98
2023-05-17T02:26:22.913Z,100467.28
2023-05-17T02:29:03.917Z,100472.27
2023-05-17T02:31:43.389Z,100472.02
2023-05-17T02:34:19.486Z,100471.64
2023-05-17T02:36:55.781Z,100469.86
2023-05-17T02:39:25.837Z,100467.54
2023-05-17T02:41:58.118Z,100469.89
2023-05-17T02:44:31.354Z,100468.84
2023-05-17T02:49:51.429Z,100469.23
2023-05-17T02:52:22.254Z,100468.00
2023-05-17T02:54:56.830Z,100470.20
2023-05-17T02:57:30.004Z,100474.42
2023-05-17T03:00:02.599Z,100475.71
2023-05-17T03:02:47.540Z,100474.09
2023-05-17T03:05:18.301Z,100476.53
2023-05-17T03:07:59.732Z,100473.18
2023-05-17T03:10:38.345Z,100470.89
2023-05-17T03:13:15.371Z,100470.14
2023-05-17T03:15:46.316Z,100472.23
2023-05-17T03:18:17.522Z,100476.05
2023-05-17T03:20:54.222Z,100477.85
2023-05-17T03:23:24.669Z,100477.52
2023-05-17T03:26:02.689Z,100481.73
2023-05-17T03:28:45.605Z,100483.00
2023-05-17T03:31:22.568Z,100483.88
2023-05-17T03:33:53.327Z,100487.91
2023-05-17T03:36:24.236Z,100491.24
2023-05-17T03:38:54.382Z,100491.95
2023-05-17T03:41:25.494Z,100495.00
2023-05-17T03:43:56.928Z,100497.39
2023-05-17T03:46:27.871Z,100497.02
2023-05-17T03:48:58.898Z,100497.02
2023-05-17T03:51:29.331Z,100499.34
2023-05-17T03:54:02.465Z,100504.29
2023-05-17T03:56:37.145Z,100511.39
2023-05-17T03:59:10.623Z,100513.47
2023-05-17T04:01:50.143Z,100520.23
2023-05-17T04:04:24.943Z,100521.63
2023-05-17T04:06:58.236Z,100520.93
2023-05-17T04:09:35.590Z,100520.92
2023-05-17T04:12:09.482Z,100525.26
2023-05-17T04:14:43.484Z,100528.51
2023-05-17T04:17:16.862Z,100529.61
2023-05-17T04:19:56.634Z,100530.46
2023-05-17T04:22:29.395Z,100532.48
2023-05-17T04:25:01.907Z,100532.52
2023-05-17T04:27:32.623Z,100533.70
2023-05-17T04:30:05.703Z,100534.44
2023-05-17T04:32:39.261Z,100535.93
2023-05-17T04:35:12.002Z,100531.57
2023-05-17T04:37:56.723Z,100532.78
2023-05-17T04:40:30.145Z,100539.48
2023-05-17T04:43:07.969Z,100542.30
2023-05-17T04:45:46.775Z,100539.39
2023-05-17T04:48:21.055Z,100541.27
2023-05-17T04:50:55.370Z,100540.65
2023-05-17T04:53:31.587Z,100537.92
2023-05-17T04:56:07.276Z,100541.26
2023-05-17T04:58:41.483Z,100549.31
2023-05-17T05:01:16.240Z,100551.70
2023-05-17T05:03:52.246Z,100555.48
2023-05-17T05:06:22.590Z,100554.89
2023-05-17T05:08:53.004Z,100559.50
2023-05-17T05:11:26.335Z,100560.31
2023-05-17T05:13:57.659Z,100559.95
2023-05-17T05:16:29.549Z,100561.84
2023-05-17T05:19:03.741Z,100564.92
2023-05-17T05:21:35.078Z,100568.08
2023-05-17T05:24:09.877Z,100573.71
2023-05-17T05:26:47.492Z,100577.21
2023-05-17T05:29:23.578Z,100579.00
2023-05-17T05:31:54.033Z,100578.27
2023-05-17T05:34:31.836Z,100576.84
2023-05-17T05:37:03.126Z,100575.80
2023-05-17T05:39:33.038Z,100570.89
2023-05-17T05:42:03.981Z,100571.39
2023-05-17T05:44:34.674Z,100568.48
2023-05-17T05:47:05.725Z,100572.70
2023-05-17T05:49:36.250Z,100577.84
2023-05-17T05:52:14.708Z,100574.05
2023-05-17T05:54:48.625Z,100565.08
2023-05-17T05:57:19.112Z,100567.77
2023-05-17T05:59:49.467Z,100572.17
2023-05-17T06:02:20.311Z,100571.23
2023-05-17T06:04:59.919Z,100576.89
2023-05-17T06:07:35.895Z,100584.38
2023-05-17T06:10:07.590Z,100587.45
2023-05-17T06:12:41.570Z,100589.70
2023-05-17T06:15:11.530Z,100590.61
2023-05-17T06:17:46.092Z,100597.39
2023-05-17T06:20:22.651Z,100605.04
2023-05-17T06:22:54.520Z,100613.16
2023-05-17T06:25:26.076Z,100620.47
2023-05-17T06:27:55.829Z,100622.70
2023-05-17T06:30:28.161Z,100632.73
2023-05-17T06:33:05.055Z,100639.58
2023-05-17T06:35:47.957Z,100645.78
2023-05-17T06:38:25.332Z,100648.29
2023-05-17T06:41:05.451Z,100650.07
2023-05-17T06:43:46.525Z,100654.45
2023-05-17T06:46:19.346Z,100659.48
2023-05-17T06:48:51.371Z,100668.92
2023-05-17T06:51:22.485Z,100673.11
2023-05-17T06:53:55.446Z,100671.41
2023-05-17T06:56:42.659Z,100672.55
2023-05-17T06:59:15.666Z,100674.18
2023-05-17T07:01:49.833Z,100671.20
2023-05-17T07:04:21.205Z,100668.63
2023-05-17T07:06:52.033Z,100669.25
2023-05-17T07:09:22.260Z,100671.94
2023-05-17T07:11:57.295Z,100677.39
2023-05-17T07:14:43.615Z,100682.67
2023-05-17T07:17:16.077Z,100681.90
2023-05-17T07:19:51.547Z,100683.23
2023-05-17T07:22:33.675Z,100692.29
2023-05-17T07:25:05.239Z,100692.19
2023-05-17T07:27:37.573Z,100690.64
2023-05-17T07:30:26.964Z,100688.75
2023-05-17T07:33:08.186Z,100685.55
2023-05-17T07:35:47.059Z,100687.89
2023-05-17T07:38:26.318Z,100693.89
2023-05-17T07:41:09.930Z,100700.02
2023-05-17T07:43:44.047Z,100700.81
2023-05-17T07:46:14.079Z,100701.98
2023-05-17T07:48:58.330Z,100705.25
2023-05-17T07:51:35.089Z,100704.79
2023-05-17T07:54:09.543Z,100703.94
2023-05-17T07:56:41.389Z,100705.33
2023-05-17T07:59:12.518Z,100705.70
2023-05-17T08:01:49.177Z,100707.45
2023-05-17T08:04:22.054Z,100713.00
2023-05-17T08:07:01.238Z,100710.48
2023-05-17T08:09:38.259Z,100703.96
2023-05-17T08:12:07.693Z,100702.11
2023-05-17T08:14:37.704Z,100704.98
2023-05-17T08:17:11.134Z,100706.44
2023-05-17T08:19:42.098Z,100710.67
2023-05-17T08:22:22.331Z,100709.13
2023-05-17T08:24:56.347Z,100706.57
2023-05-17T08:27:30.986Z,100706.65
2023-05-17T08:30:12.097Z,100709.41
2023-05-17T08:32:49.590Z,100703.36
2023-05-17T08:35:33.180Z,100700.23
2023-05-17T08:38:29.058Z,100699.81
2023-05-17T08:41:00.482Z,100702.13
2023-05-17T08:43:34.741Z,100708.80
2023-05-17T08:46:09.741Z,100704.58
2023-05-17T08:48:43.798Z,100698.88
2023-05-17T08:51:19.440Z,100699.52
2023-05-17T08:53:59.655Z,100707.86
2023-05-17T08:56:33.705Z,100709.94
2023-05-17T08:59:09.574Z,100710.93
2023-05-17T09:01:44.463Z,100712.65
2023-05-17T09:04:19.983Z,100714.33
2023-05-17T09:07:04.446Z,100713.92
2023-05-17T09:09:46.092Z,100715.85
2023-05-17T09:12:21.227Z,100709.96
2023-05-17T09:14:57.901Z,100706.03
2023-05-17T09:17:34.020Z,100699.30
2023-05-17T09:20:04.831Z,100696.67
2023-05-17T09:22:38.017Z,100696.69
2023-05-17T09:25:20.051Z,100694.83
2023-05-17T09:27:56.091Z,100690.20
2023-05-17T09:30:33.392Z,100695.48
2023-05-17T09:33:15.089Z,100692.06
2023-05-17T09:35:56.490Z,100691.80
2023-05-17T09:38:33.858Z,100690.94
2023-05-17T09:41:08.882Z,100692.81
2023-05-17T09:43:43.033Z,100696.59
2023-05-17T09:46:17.373Z,100699.50
2023-05-17T09:48:57.992Z,100694.62
2023-05-17T09:51:42.587Z,100693.29
2023-05-17T09:54:19.748Z,100699.88
2023-05-17T09:57:17.944Z,100707.55
2023-05-17T10:00:11.299Z,100706.20
2023-05-17T10:02:48.804Z,100704.27
2023-05-17T10:05:21.786Z,100702.52
2023-05-17T10:07:56.938Z,100698.31
2023-05-17T10:10:27.896Z,100696.59
2023-05-17T10:13:01.979Z,100701.14
2023-05-17T10:15:36.760Z,100700.20
2023-05-17T10:18:12.866Z,100701.55
2023-05-17T10:21:11.724Z,100706.70
2023-05-17T10:23:58.732Z,100714.06
2023-05-17T10:26:54.872Z,100719.13
2023-05-17T10:30:04.788Z,100723.70
2023-05-17T10:32:54.516Z,100719.44
2023-05-17T10:35:46.808Z,100715.13
2023-05-17T10:39:00.320Z,100714.82
2023-05-17T10:41:53.012Z,100719.33
2023-05-17T10:45:12.119Z,100720.84
2023-05-17T10:48:35.366Z,100724.27
2023-05-17T10:51:50.879Z,100717.30
2023-05-17T10:54:38.702Z,100721.06
2023-05-17T10:57:23.196Z,100721.16
2023-05-17T11:00:22.430Z,100727.37
2023-05-17T11:03:21.311Z,100727.27
2023-05-17T11:06:24.889Z,100728.20
2023-05-17T11:09:18.636Z,100728.75
2023-05-17T11:12:07.645Z,100731.38
2023-05-17T11:14:48.998Z,100732.01
2023-05-17T11:21:17.666Z,100738.68
2023-05-17T11:23:58.466Z,100741.27
2023-05-17T11:26:50.426Z,100739.36
2023-05-17T11:29:39.576Z,100742.36
2023-05-17T11:32:44.358Z,100742.66
2023-05-17T11:35:15.104Z,100750.06
2023-05-17T11:37:50.023Z,100750.74
2023-05-17T11:40:32.962Z,100756.05
2023-05-17T11:43:34.166Z,100753.33
2023-05-17T11:46:07.749Z,100752.67
2023-05-17T11:48:39.690Z,100751.28
2023-05-17T11:51:21.353Z,100751.76
2023-05-17T11:54:07.707Z,100753.07
2023-05-17T11:56:45.573Z,100750.92
2023-05-17T11:59:21.400Z,100754.05
2023-05-17T12:01:56.652Z,100749.44
2023-05-17T12:04:30.173Z,100749.55
2023-05-17T12:07:02.132Z,100751.21
2023-05-17T12:09:42.085Z,100750.88
2023-05-17T12:12:11.732Z,100750.02
2023-05-17T12:14:45.537Z,100753.91
2023-05-17T12:17:39.471Z,100752.45
2023-05-17T12:20:17.809Z,100755.52
2023-05-17T12:23:07.549Z,100753.70
2023-05-17T12:25:40.771Z,100751.80
2023-05-17T12:28:22.886Z,100755.19
2023-05-17T12:31:20.736Z,100759.59
2023-05-17T12:33:59.657Z,100763.48
2023-05-17T12:36:42.728Z,100767.85
2023-05-17T12:39:25.069Z,100769.05
2023-05-17T12:41:58.833Z,100768.58
2023-05-17T12:44:33.439Z,100772.86
2023-05-17T12:47:07.380Z,100770.23
2023-05-17T12:50:20.399Z,100768.34
2023-05-17T12:52:59.370Z,100769.23
2023-05-17T12:55:47.369Z,100768.58
2023-05-17T12:58:18.497Z,100769.40
2023-05-17T13:01:07.905Z,100768.08
2023-05-17T13:03:38.697Z,100768.14
2023-05-17T13:06:13.807Z,100771.39
2023-05-17T13:09:02.633Z,100772.38
2023-05-17T13:11:47.196Z,100770.49
2023-05-17T13:14:45.358Z,100767.35
2023-05-17T13:17:27.321Z,100767.52
2023-05-17T13:19:58.239Z,100766.79
2023-05-17T13:22:28.077Z,100768.78
2023-05-17T13:24:57.570Z,100769.09
2023-05-17T13:27:33.683Z,100776.38
2023-05-17T13:30:09.433Z,100785.07
2023-05-17T13:32:47.524Z,100790.89
2023-05-17T13:35:19.776Z,100796.22
2023-05-17T13:37:49.898Z,100798.70
2023-05-17T13:40:24.639Z,100799.53
2023-05-17T13:42:59.401Z,100808.98
2023-05-17T13:45:29.827Z,100814.57
2023-05-17T13:48:04.874Z,100818.23
2023-05-17T13:50:42.593Z,100823.37
2023-05-17T13:53:25.680Z,100825.59
2023-05-17T13:56:00.752Z,100832.47
2023-05-17T13:58:30.279Z,100837.23
2023-05-17T14:01:00.572Z,100840.73
2023-05-17T14:03:30.154Z,100841.24
2023-05-17T14:05:59.481Z,100846.96
2023-05-17T14:08:32.260Z,100854.39
2023-05-17T14:11:06.256Z,100856.55
2023-05-17T14:13:45.775Z,100860.34
2023-05-17T14:16:38.115Z,100861.22
2023-05-17T14:19:14.812Z,100865.48
2023-05-17T14:21:48.163Z,100865.52
2023-05-17T14:24:24.852Z,100870.66
2023-05-17T14:27:05.465Z,100875.96
2023-05-17T14:29:45.505Z,100881.42
2023-05-17T14:32:22.815Z,100886.19
2023-05-17T14:34:59.921Z,100893.09
2023-05-17T14:37:40.774Z,100895.70
2023-05-17T14:40:18.994Z,100900.20
2023-05-17T14:42:53.892Z,100904.71
2023-05-17T14:45:24.111Z,100901.71
2023-05-17T14:47:54.162Z,100903.59
2023-05-17T14:50:23.897Z,100908.52
2023-05-17T14:52:58.036Z,100918.08
2023-05-17T14:55:36.985Z,100918.61
2023-05-17T14:58:18.980Z,100916.26
2023-05-17T15:01:06.768Z,100914.23
2023-05-17T15:06:45.791Z,100916.73
2023-05-17T15:09:18.758Z,100915.88
2023-05-17T15:11:50.220Z,100913.93
2023-05-17T15:14:25.809Z,100912.75
2023-05-17T15:16:56.745Z,100918.71
2023-05-17T15:19:29.775Z,100924.65
2023-05-17T15:22:00.124Z,100925.13
2023-05-17T15:24:30.329Z,100926.48
2023-05-17T15:27:08.589Z,100930.17
2023-05-17T15:29:51.289Z,100931.04
2023-05-17T15:32:31.010Z,100931.95
2023-05-17T15:35:12.073Z,100928.73
2023-05-17T15:37:47.141Z,100921.88
2023-05-17T15:40:21.924Z,100918.59
2023-05-17T15:46:53.184Z,100919.44
2023-05-17T15:49:26.166Z,100918.48
2023-05-17T15:52:04.168Z,100921.51
2023-05-17T15:54:34.102Z,100926.34
2023-05-17T15:57:05.287Z,100926.70
2023-05-17T15:59:41.709Z,100926.05
2023-05-17T16:02:14.693Z,100925.96
2023-05-17T16:04:51.635Z,100931.94
2023-05-17T16:07:32.683Z,100939.77
2023-05-17T16:10:03.509Z,100943.20
2023-05-17T16:12:36.994Z,100946.47
2023-05-17T16:15:17.663Z,100948.02
2023-05-17T16:17:57.685Z,100953.70
2023-05-17T16:20:42.823Z,100959.16
2023-05-17T16:23:26.662Z,100958.55
2023-05-17T16:26:07.846Z,100960.42
2023-05-17T16:28:41.517Z,100963.95
2023-05-17T16:31:20.129Z,100965.36
2023-05-17T16:34:01.581Z,100962.59
2023-05-17T16:36:42.439Z,100963.57
2023-05-17T16:39:22.052Z,100967.66
2023-05-17T16:42:00.127Z,100972.20
2023-05-17T16:44:37.690Z,100977.80
2023-05-17T16:47:18.709Z,100986.17
2023-05-17T16:49:57.054Z,100987.23
2023-05-17T16:52:34.820Z,100989.38
2023-05-17T16:55:07.143Z,100988.63
2023-05-17T16:57:49.793Z,100994.84
2023-05-17T17:00:30.167Z,101000.85
2023-05-17T17:03:14.371Z,100996.12
2023-05-17T17:05:57.649Z,100997.14
2023-05-17T17:08:45.655Z,100999.70
2023-05-17T17:11:31.184Z,101007.14
2023-05-17T17:14:03.706Z,101008.80
2023-05-17T17:16:53.631Z,101009.90
2023-05-17T17:19:30.973Z,101011.67
2023-05-17T17:22:07.669Z,101012.25
2023-05-17T17:25:13.983Z,101017.90
2023-05-17T17:28:07.123Z,101021.59
2023-05-17T17:31:05.472Z,101018.53
2023-05-17T17:33:41.574Z,101017.95
2023-05-17T17:36:13.642Z,101017.90
2023-05-17T17:38:53.671Z,101020.27
2023-05-17T17:41:47.206Z,101013.50
2023-05-17T17:44:41.264Z,101013.70
2023-05-17T17:47:28.308Z,101010.13
2023-05-17T17:53:42.273Z,101017.02
2023-05-17T17:56:41.608Z,101013.80
2023-05-17T17:59:13.921Z,101008.52
2023-05-17T18:01:49.034Z,101009.13
2023-05-17T18:04:20.778Z,101007.65
2023-05-17T18:07:02.765Z,101007.25
2023-05-17T18:09:36.016Z,101007.59
2023-05-17T18:12:09.175Z,101010.34
2023-05-17T18:14:42.484Z,101012.50
2023-05-17T18:17:36.835Z,101013.40
2023-05-17T18:20:12.436Z,101011.41
2023-05-17T18:22:56.044Z,101013.39
2023-05-17T18:25:26.233Z,101016.92
2023-05-17T18:27:56.682Z,101017.59
2023-05-17T18:30:27.099Z,101018.00
2023-05-17T18:32:59.616Z,101018.27
2023-05-17T18:36:16.721Z,101024.67
2023-05-17T18:39:15.025Z,101031.23
2023-05-17T18:42:12.736Z,101039.66
2023-05-17T18:44:48.817Z,101047.92
2023-05-17T18:47:25.611Z,101055.46
2023-05-17T18:53:41.034Z,101073.95
2023-05-17T18:56:22.553Z,101073.40
2023-05-17T18:59:06.949Z,101075.39
2023-05-17T19:01:52.402Z,101079.24
2023-05-17T19:04:42.551Z,101086.31
2023-05-17T19:07:35.242Z,101090.94
2023-05-17T19:10:32.267Z,101093.48
2023-05-17T19:13:29.364Z,101092.69
2023-05-17T19:16:09.898Z,101088.91
2023-05-17T19:19:04.692Z,101090.45
2023-05-17T19:21:44.951Z,101090.30
2023-05-17T19:24:15.500Z,101095.02
2023-05-17T19:26:48.587Z,101101.05
2023-05-17T19:29:22.832Z,101109.52
2023-05-17T19:31:59.687Z,101109.23
2023-05-17T19:34:36.814Z,101109.15
2023-05-17T19:37:33.498Z,101108.59
2023-05-17T19:40:13.035Z,101110.95
2023-05-17T19:42:47.143Z,101114.61
2023-05-17T19:45:34.644Z,101120.95
2023-05-17T19:48:25.566Z,101131.14
2023-05-17T19:51:12.551Z,101134.44
2023-05-17T19:53:53.430Z,101135.70
2023-05-17T19:56:31.882Z,101140.45
2023-05-17T19:59:11.526Z,101141.55
2023-05-17T20:01:44.688Z,101147.54
2023-05-17T20:04:36.918Z,101144.55
2023-05-17T20:07:25.368Z,101142.80
2023-05-17T20:10:13.151Z,101149.91
2023-05-17T20:12:58.307Z,101150.80
2023-05-17T20:15:29.166Z,101157.79
2023-05-17T20:18:28.003Z,101153.38
2023-05-17T20:24:48.030Z,101155.91
2023-05-17T20:34:34.013Z,101167.90
2023-05-17T20:37:07.454Z,101174.70
2023-05-17T20:39:46.933Z,101175.33
2023-05-17T20:42:20.827Z,101169.94
2023-05-17T20:45:13.846Z,101172.10
2023-05-17T21:01:01.907Z,101188.08
2023-05-17T21:03:37.474Z,101194.08
2023-05-17T21:10:11.634Z,101210.72
2023-05-17T21:21:21.897Z,101216.41
2023-05-17T21:24:28.067Z,101212.36
2023-05-17T21:27:21.550Z,101212.91
2023-05-17T21:30:00.910Z,101215.76
2023-05-17T21:32:40.983Z,101214.09
2023-05-17T21:35:35.405Z,101217.11
2023-05-17T21:38:10.775Z,101225.52
2023-05-17T21:41:05.609Z,101229.25
2023-05-17T21:57:25.645Z,101224.98
2023-05-17T22:00:38.137Z,101220.67
2023-05-17T22:04:05.362Z,101214.52
2023-05-17T22:07:17.576Z,101216.89
2023-05-17T22:12:55.042Z,101228.70
2023-05-17T22:15:40.616Z,101233.31
2023-05-17T22:18:24.017Z,101235.02
2023-05-17T22:21:03.036Z,101243.16
2023-05-17T22:27:12.511Z,101240.84
2023-05-17T22:30:01.842Z,101236.80
2023-05-17T22:32:45.111Z,101236.20
2023-05-17T22:35:21.807Z,101230.88
2023-05-17T22:37:54.695Z,101232.88
2023-05-17T22:40:27.504Z,101231.77
2023-05-17T22:43:35.885Z,101230.65
2023-05-17T22:46:27.940Z,101234.56
2023-05-17T22:49:28.615Z,101236.02
2023-05-17T22:52:08.294Z,101232.48
2023-05-17T22:54:51.219Z,101229.42
2023-05-17T22:57:31.186Z,101229.33
2023-05-17T23:00:06.156Z,101227.29
2023-05-17T23:02:44.978Z,101231.17
2023-05-17T23:05:28.799Z,101237.70
2023-05-17T23:08:16.516Z,101243.52
2023-05-17T23:10:54.293Z,101244.94
2023-05-17T23:13:31.503Z,101248.09
2023-05-17T23:16:26.248Z,101257.17
2023-05-17T23:18:58.604Z,101263.11
2023-05-17T23:21:38.101Z,101258.41
2023-05-17T23:24:12.780Z,101258.26
2023-05-17T23:27:00.594Z,101260.19
2023-05-17T23:29:36.454Z,101263.67
2023-05-17T23:32:17.342Z,101271.14
2023-05-17T23:34:50.835Z,101279.34
2023-05-17T23:37:27.069Z,101287.16
2023-05-17T23:40:00.673Z,101292.75
2023-05-17T23:42:38.273Z,101294.52
2023-05-17T23:45:10.226Z,101297.11
2023-05-17T23:47:41.415Z,101304.04
2023-05-17T23:50:12.406Z,101306.63
2023-05-17T23:52:45.434Z,101307.48
2023-05-17T23:55:28.042Z,101307.70
2023-05-17T23:58:21.573Z,101311.70
